Time;durP1;ratioP1;P1;durP2;ratioP2;P2;SDS_P1;SDS_P2;PMS_P1;PMS_P2;Temp;Humidity;BMP_temperature;BMP_pressure;BME280_temperature;BME280_humidity;BME280_pressure;Samples;Min_cycle;Max_cycle;Signal;HPM_P1;HPM_P2
2023/12/01 00:01:32;;;;;;;16.13;9.45;;;;;;;1.05;68.85;100655.03;7392322;19;20026;-61
2023/12/01 00:04:00;;;;;;;15.20;9.18;;;;;;;0.86;68.81;100649.63;7393250;19;20019;-62
2023/12/01 00:06:28;;;;;;;15.85;9.73;;;;;;;0.76;69.99;100660.41;7394946;19;20086;-62
2023/12/01 00:08:56;;;;;;;17.13;10.20;;;;;;;0.83;69.84;100661.91;7395314;19;20026;-63
2023/12/01 00:11:24;;;;;;;15.07;9.20;;;;;;;0.96;69.12;100652.75;7390715;19;20091;-65
2023/12/01 00:13:52;;;;;;;17.13;9.60;;;;;;;0.89;69.32;100656.50;7392567;19;20111;-69
2023/12/01 00:16:19;;;;;;;15.98;9.20;;;;;;;0.69;69.22;100659.78;7392955;19;20019;-69
2023/12/01 00:18:47;;;;;;;17.25;9.85;;;;;;;0.88;69.28;100665.22;7393153;19;20034;-69
2023/12/01 00:21:15;;;;;;;16.42;9.95;;;;;;;0.79;68.43;100658.56;7391557;19;20035;-67
2023/12/01 00:23:43;;;;;;;16.73;9.38;;;;;;;0.95;68.46;100651.03;7391960;19;20011;-68
2023/12/01 00:26:11;;;;;;;16.98;10.35;;;;;;;0.93;68.61;100655.47;7394075;19;20018;-68
2023/12/01 00:28:39;;;;;;;18.77;11.07;;;;;;;0.77;68.81;100659.53;7393791;19;20011;-68
2023/12/01 00:31:07;;;;;;;15.85;9.15;;;;;;;0.89;68.89;100651.28;7391309;19;20035;-68
2023/12/01 00:33:34;;;;;;;17.40;10.48;;;;;;;0.71;68.95;100661.44;7393654;19;20394;-68
2023/12/01 00:36:03;;;;;;;18.10;10.85;;;;;;;0.68;69.75;100664.13;7391764;19;20025;-68
2023/12/01 00:38:30;;;;;;;17.17;9.90;;;;;;;0.90;69.22;100663.41;7393183;19;20085;-68
2023/12/01 00:40:58;;;;;;;17.77;10.70;;;;;;;0.95;68.93;100661.47;7391660;19;20344;-68
2023/12/01 00:43:26;;;;;;;16.92;10.18;;;;;;;0.87;69.20;100671.31;7392952;19;20022;-68
2023/12/01 00:45:54;;;;;;;17.38;10.13;;;;;;;0.94;69.18;100670.19;7393964;19;20025;-68
2023/12/01 00:48:22;;;;;;;17.70;10.38;;;;;;;0.95;69.75;100679.72;7395659;19;20062;-68
2023/12/01 00:50:52;;;;;;;15.68;9.35;;;;;;;0.88;69.83;100686.06;7392115;19;20014;-68
2023/12/01 00:53:20;;;;;;;16.00;9.50;;;;;;;0.94;69.17;100676.25;7392972;19;20487;-68
2023/12/01 00:55:47;;;;;;;16.48;10.10;;;;;;;0.92;69.69;100677.25;7393785;19;20124;-68
2023/12/01 00:58:15;;;;;;;17.88;10.55;;;;;;;0.98;69.37;100684.81;7395921;19;20051;-70
2023/12/01 01:00:43;;;;;;;17.15;9.98;;;;;;;0.95;69.65;100690.16;7393672;19;20471;-70
2023/12/01 01:03:11;;;;;;;16.75;9.75;;;;;;;1.04;68.70;100683.78;7394155;19;20021;-70
2023/12/01 01:05:39;;;;;;;16.45;10.00;;;;;;;1.03;68.97;100689.88;7394876;19;20015;-70
2023/12/01 01:08:07;;;;;;;15.10;9.82;;;;;;;0.95;69.26;100685.81;7393887;19;20022;-70
2023/12/01 01:10:35;;;;;;;16.60;9.45;;;;;;;0.90;68.94;100689.47;7395021;19;20363;-70
2023/12/01 01:13:03;;;;;;;17.48;9.98;;;;;;;0.72;69.90;100691.78;7393653;19;20011;-71
2023/12/01 01:15:31;;;;;;;17.75;10.05;;;;;;;0.84;69.32;100692.28;7392648;19;20015;-70
2023/12/01 01:17:59;;;;;;;17.65;10.15;;;;;;;0.74;69.47;100681.31;7392309;19;20035;-70
2023/12/01 01:20:29;;;;;;;17.58;10.48;;;;;;;0.86;69.61;100695.69;7391338;19;20499;-70
2023/12/01 01:22:56;;;;;;;17.15;10.15;;;;;;;1.03;68.55;100697.69;7391193;19;20381;-71
2023/12/01 01:25:24;;;;;;;18.55;10.88;;;;;;;0.86;68.34;100700.91;7390711;19;20032;-71
2023/12/01 01:27:52;;;;;;;20.25;11.45;;;;;;;0.60;69.77;100701.78;7391624;19;20026;-71
2023/12/01 01:30:20;;;;;;;19.00;12.07;;;;;;;0.66;69.32;100702.44;7391409;19;20022;-71
2023/12/01 01:32:48;;;;;;;19.83;12.57;;;;;;;0.63;69.70;100707.75;7391846;19;20014;-71
2023/12/01 01:35:16;;;;;;;19.48;11.98;;;;;;;0.68;69.17;100705.81;7389613;19;20018;-71
2023/12/01 01:37:44;;;;;;;21.00;11.95;;;;;;;0.52;69.49;100711.59;7390786;19;20018;-72
2023/12/01 01:40:13;;;;;;;20.58;12.60;;;;;;;0.62;69.83;100716.47;7389394;19;20478;-72
2023/12/01 01:42:41;;;;;;;20.55;12.30;;;;;;;0.86;68.81;100713.94;7391689;19;20027;-68
2023/12/01 01:45:10;;;;;;;21.15;12.27;;;;;;;1.03;68.26;100718.56;7391467;19;20428;-67
2023/12/01 01:47:38;;;;;;;19.45;12.10;;;;;;;1.10;67.56;100720.88;7392613;19;20017;-71
2023/12/01 01:50:07;;;;;;;20.85;13.15;;;;;;;0.93;68.30;100718.88;7389615;19;20026;-69
2023/12/01 01:52:37;;;;;;;19.60;12.27;;;;;;;0.97;68.23;100723.09;7391232;19;20018;-70
2023/12/01 01:55:06;;;;;;;21.42;12.88;;;;;;;0.99;67.78;100717.81;7390766;19;20014;-68
2023/12/01 01:57:40;;;;;;;22.92;13.32;;;;;;;1.05;67.79;100722.81;7390441;19;20391;-70
2023/12/01 02:00:08;;;;;;;22.80;13.75;;;;;;;0.73;68.46;100724.78;7390136;19;20018;-69
2023/12/01 02:02:36;;;;;;;19.50;12.88;;;;;;;0.68;68.87;100720.59;7389541;19;20027;-69
2023/12/01 02:05:12;;;;;;;21.80;12.60;;;;;;;0.61;69.18;100724.31;7391233;19;20091;-69
2023/12/01 02:07:41;;;;;;;22.35;13.80;;;;;;;0.47;69.07;100719.59;7389227;19;20078;-69
2023/12/01 02:10:15;;;;;;;22.40;13.25;;;;;;;0.62;68.79;100719.06;7389385;19;20025;-69
2023/12/01 02:12:44;;;;;;;22.75;13.55;;;;;;;0.50;68.80;100727.31;7390729;19;20371;-69
2023/12/01 02:15:13;;;;;;;22.92;13.50;;;;;;;0.44;69.30;100732.69;7389404;19;20019;-69
2023/12/01 02:17:41;;;;;;;22.15;13.85;;;;;;;0.45;68.96;100735.25;7390569;19;20038;-69
2023/12/01 02:20:14;;;;;;;22.92;14.50;;;;;;;0.55;68.80;100725.38;7389174;19;20026;-69
2023/12/01 02:22:44;;;;;;;24.33;14.43;;;;;;;0.49;68.47;100736.84;7388866;19;20025;-69
2023/12/01 02:25:12;;;;;;;21.98;13.90;;;;;;;0.51;68.67;100730.75;7390513;19;20031;-69
2023/12/01 02:27:40;;;;;;;23.25;14.52;;;;;;;0.46;68.74;100741.34;7388723;19;20452;-69
2023/12/01 02:30:10;;;;;;;23.52;14.52;;;;;;;0.44;68.34;100730.94;7388540;19;20023;-70
2023/12/01 02:32:39;;;;;;;22.70;14.23;;;;;;;0.29;68.91;100743.59;7390160;19;20014;-70
2023/12/01 02:35:09;;;;;;;24.42;15.63;;;;;;;0.40;68.96;100741.50;7389049;19;20416;-70
2023/12/01 02:37:38;;;;;;;24.40;14.98;;;;;;;0.46;68.81;100733.50;7390127;19;20342;-70
2023/12/01 02:40:14;;;;;;;25.92;16.13;;;;;;;0.50;68.65;100740.31;7389907;19;20025;-70
2023/12/01 02:42:48;;;;;;;27.50;16.10;;;;;;;0.49;68.13;100743.81;7397130;19;20047;-70
2023/12/01 02:45:17;;;;;;;25.25;15.65;;;;;;;0.53;68.28;100741.97;7397056;19;20021;-70
2023/12/01 02:47:47;;;;;;;26.15;16.77;;;;;;;0.52;67.80;100743.72;7396853;19;20047;-71
2023/12/01 02:50:18;;;;;;;27.77;17.00;;;;;;;0.59;67.62;100750.44;7395224;19;20018;-71
2023/12/01 02:52:46;;;;;;;27.20;17.17;;;;;;;0.45;67.53;100743.06;7395176;19;20018;-71
2023/12/01 02:55:14;;;;;;;26.75;17.15;;;;;;;0.38;67.48;100748.50;7394288;19;20479;-71
2023/12/01 02:57:43;;;;;;;28.05;17.05;;;;;;;0.31;67.94;100747.03;7395178;19;20038;-71
2023/12/01 03:00:14;;;;;;;28.35;17.75;;;;;;;0.22;68.45;100751.59;7393533;19;20378;-71
2023/12/01 03:02:43;;;;;;;27.45;17.27;;;;;;;0.41;67.62;100751.03;7395150;19;20050;-71
2023/12/01 03:05:11;;;;;;;28.35;18.27;;;;;;;0.46;67.29;100757.81;7396983;19;20011;-70
2023/12/01 03:07:40;;;;;;;32.63;18.45;;;;;;;0.39;67.44;100763.25;7396451;19;20374;-71
2023/12/01 03:10:08;;;;;;;28.00;17.50;;;;;;;0.20;67.87;100760.38;7393284;19;20026;-72
2023/12/01 03:12:37;;;;;;;27.10;17.48;;;;;;;0.30;68.43;100761.78;7396039;19;20397;-72
2023/12/01 03:15:19;;;;;;;27.45;17.73;;;;;;;0.34;68.23;100773.78;7395803;19;20414;-72
2023/12/01 03:17:47;;;;;;;28.20;17.90;;;;;;;0.27;67.88;100769.72;7396176;19;20367;-70
2023/12/01 03:20:16;;;;;;;30.20;18.42;;;;;;;0.25;67.99;100766.28;7394861;19;20095;-71
2023/12/01 03:22:46;;;;;;;30.08;18.20;;;;;;;0.37;67.19;100762.44;7396593;19;20021;-77
2023/12/01 03:25:14;;;;;;;29.80;17.95;;;;;;;0.28;67.47;100760.97;7396178;19;20018;-77
2023/12/01 03:27:44;;;;;;;28.90;19.00;;;;;;;0.12;68.11;100747.59;7396384;19;20339;-76
2023/12/01 03:30:14;;;;;;;29.00;18.20;;;;;;;-0.04;69.13;100756.75;7394527;19;20078;-76
2023/12/01 03:32:50;;;;;;;31.35;18.63;;;;;;;0.07;68.82;100746.00;7394064;19;20024;-77
2023/12/01 03:35:24;;;;;;;30.65;18.65;;;;;;;0.37;67.92;100752.88;7394762;19;20014;-75
2023/12/01 03:37:56;;;;;;;27.85;17.30;;;;;;;0.47;67.46;100750.84;7394444;19;20015;-76
2023/12/01 03:40:25;;;;;;;27.73;18.10;;;;;;;0.22;67.86;100749.00;7393697;19;20034;-76
2023/12/01 03:42:53;;;;;;;31.27;19.15;;;;;;;-0.01;68.53;100757.50;7394306;19;20022;-76
2023/12/01 03:45:22;;;;;;;30.75;19.52;;;;;;;-0.06;68.91;100750.75;7393688;19;20086;-76
2023/12/01 03:47:51;;;;;;;26.83;17.63;;;;;;;0.01;68.83;100749.66;7393779;19;20023;-76
2023/12/01 03:50:19;;;;;;;26.02;17.17;;;;;;;-0.06;68.49;100755.94;7393344;19;20046;-76
2023/12/01 03:52:50;;;;;;;25.90;16.15;;;;;;;0.12;67.95;100759.75;7393322;19;20025;-77
2023/12/01 03:55:18;;;;;;;25.67;16.70;;;;;;;0.20;67.48;100763.81;7392933;19;20025;-76
2023/12/01 03:57:47;;;;;;;29.08;17.90;;;;;;;0.31;66.67;100754.84;7393880;19;20019;-76
2023/12/01 04:00:18;;;;;;;28.45;17.92;;;;;;;0.07;67.68;100759.03;7393914;19;20025;-76
2023/12/01 04:02:48;;;;;;;28.65;17.42;;;;;;;-0.12;68.97;100764.78;7394672;19;20014;-76
2023/12/01 04:05:18;;;;;;;26.38;17.02;;;;;;;-0.14;68.50;100764.00;7395783;19;20031;-76
2023/12/01 04:07:53;;;;;;;28.85;17.90;;;;;;;-0.11;68.51;100766.50;7395580;19;20090;-77
2023/12/01 04:10:25;;;;;;;29.02;18.40;;;;;;;-0.29;69.57;100765.28;7392940;19;20027;-77
2023/12/01 04:12:55;;;;;;;28.85;17.88;;;;;;;-0.08;68.91;100766.38;7392782;19;20416;-76
2023/12/01 04:15:25;;;;;;;29.67;18.55;;;;;;;0.04;68.25;100762.59;7393934;19;20412;-76
2023/12/01 04:17:54;;;;;;;27.23;18.00;;;;;;;0.20;67.85;100756.03;7394950;19;20039;-76
2023/12/01 04:20:25;;;;;;;29.10;18.25;;;;;;;0.14;67.62;100761.41;7392557;19;20033;-76
2023/12/01 04:22:58;;;;;;;28.92;18.05;;;;;;;-0.71;70.39;100777.75;7392692;19;20089;-76
2023/12/01 04:25:27;;;;;;;30.77;18.77;;;;;;;-0.75;71.34;100766.56;7392098;19;20085;-74
2023/12/01 04:27:58;;;;;;;31.45;19.02;;;;;;;-0.70;71.32;100766.44;7393978;19;20389;-72
2023/12/01 04:30:26;;;;;;;29.83;18.40;;;;;;;-0.88;71.60;100762.56;7390733;19;20026;-72
2023/12/01 04:32:55;;;;;;;30.52;18.42;;;;;;;-0.99;72.17;100775.03;7394061;19;20362;-73
2023/12/01 04:35:33;;;;;;;28.20;17.77;;;;;;;-1.13;72.62;100769.31;7392174;19;20014;-73
2023/12/01 04:38:03;;;;;;;31.58;19.35;;;;;;;-0.84;72.04;100772.03;7391868;19;20031;-73
2023/12/01 04:40:32;;;;;;;32.28;19.05;;;;;;;-0.50;70.83;100781.47;7392114;19;20046;-72
2023/12/01 04:43:01;;;;;;;32.30;19.67;;;;;;;-0.66;70.41;100781.06;7393164;19;20023;-75
2023/12/01 04:45:35;;;;;;;32.05;18.85;;;;;;;-0.63;70.73;100787.94;7393314;19;20018;-72
2023/12/01 04:48:03;;;;;;;;;;;;;;;-1.10;71.53;100797.81;7393962;19;20035;-72
2023/12/01 04:50:31;;;;;;;29.00;17.90;;;;;;;-1.06;72.38;100794.25;7392133;19;20266;-71
2023/12/01 04:53:00;;;;;;;31.40;19.95;;;;;;;-1.21;72.40;100802.44;7392828;19;20439;-71
2023/12/01 04:55:29;;;;;;;31.27;19.05;;;;;;;-1.28;72.74;100794.78;7392424;19;20015;-71
2023/12/01 04:58:01;;;;;;;33.35;19.48;;;;;;;-1.47;73.60;100796.97;7393812;19;20052;-69
2023/12/01 05:00:29;;;;;;;32.38;19.20;;;;;;;-0.96;72.69;100803.50;7392407;19;20022;-70
2023/12/01 05:03:00;;;;;;;30.42;19.00;;;;;;;-0.80;71.51;100802.25;7391704;19;20011;-70
2023/12/01 05:05:30;;;;;;;33.10;19.05;;;;;;;-0.66;71.20;100812.25;7392951;19;20030;-70
2023/12/01 05:09:21;;;;;;;33.65;19.15;;;;;;;-0.39;70.81;100807.22;7428006;19;20302;-71
2023/12/01 05:11:49;;;;;;;30.83;18.27;;;;;;;-0.60;70.99;100812.09;7428992;19;20022;-73
2023/12/01 05:14:17;;;;;;;32.53;19.42;;;;;;;-0.41;70.28;100809.88;7432069;19;20022;-73
2023/12/01 05:16:45;;;;;;;29.75;18.17;;;;;;;-0.43;70.15;100818.59;7431421;19;20022;-74
2023/12/01 05:19:13;;;;;;;29.60;18.38;;;;;;;-0.53;70.11;100808.44;7431459;19;20022;-74
2023/12/01 05:21:41;;;;;;;32.00;18.40;;;;;;;-1.04;72.18;100808.91;7427195;19;20411;-72
2023/12/01 05:24:11;;;;;;;31.42;18.80;;;;;;;-1.29;73.76;100800.03;7429200;19;20022;-71
2023/12/01 05:26:39;;;;;;;30.92;18.67;;;;;;;-0.94;72.90;100806.09;7433553;19;20020;-69
2023/12/01 05:29:13;;;;;;;30.08;18.20;;;;;;;-0.71;71.16;100802.88;7426252;19;20014;-71
2023/12/01 05:31:40;;;;;;;30.67;18.83;;;;;;;-0.80;71.64;100809.16;7425206;19;20086;-71
2023/12/01 05:34:09;;;;;;;31.88;19.05;;;;;;;-0.56;70.50;100810.28;7427791;19;20018;-70
2023/12/01 05:36:37;;;;;;;33.35;19.63;;;;;;;-0.50;70.04;100815.28;7425661;19;20015;-69
2023/12/01 05:39:12;;;;;;;31.00;18.92;;;;;;;-1.14;71.82;100814.38;7427625;19;20014;-70
2023/12/01 05:41:41;;;;;;;31.55;19.25;;;;;;;-1.41;73.02;100808.97;7424870;19;20033;-70
2023/12/01 05:44:08;;;;;;;31.80;19.38;;;;;;;-1.51;73.80;100810.91;7427330;19;20084;-69
2023/12/01 05:46:36;;;;;;;31.20;17.83;;;;;;;-1.41;73.47;100813.28;7425817;19;20050;-69
2023/12/01 05:49:04;;;;;;;33.50;19.63;;;;;;;-1.09;72.10;100818.56;7425718;19;20369;-68
2023/12/01 05:51:33;;;;;;;32.78;19.55;;;;;;;-0.97;72.11;100820.00;7424758;19;20348;-68
2023/12/01 05:54:01;;;;;;;33.47;19.35;;;;;;;-1.39;72.73;100812.34;7425316;19;20022;-69
2023/12/01 05:56:29;;;;;;;34.35;20.30;;;;;;;-1.64;73.98;100826.78;7426467;19;20022;-68
2023/12/01 05:58:56;;;;;;;33.20;19.65;;;;;;;-1.91;75.11;100823.91;7424155;19;20014;-68
2023/12/01 06:01:25;;;;;;;31.20;19.63;;;;;;;-1.89;75.30;100816.94;7422669;19;20362;-69
2023/12/01 06:03:53;;;;;;;31.75;19.27;;;;;;;-1.88;75.49;100817.81;7425635;19;20022;-69
2023/12/01 06:06:21;;;;;;;36.63;21.23;;;;;;;-1.68;74.54;100820.81;7428359;19;20026;-69
2023/12/01 06:08:49;;;;;;;39.97;22.30;;;;;;;-1.80;75.01;100826.28;7425934;19;20015;-68
2023/12/01 06:11:17;;;;;;;33.70;19.88;;;;;;;-1.79;74.98;100822.81;7425744;19;20035;-69
2023/12/01 06:13:45;;;;;;;34.55;19.73;;;;;;;-1.72;74.81;100830.44;7431220;19;20014;-68
2023/12/01 06:16:13;;;;;;;35.55;20.92;;;;;;;-1.83;75.28;100832.41;7431146;19;20047;-69
2023/12/01 06:18:41;;;;;;;34.78;20.98;;;;;;;-1.58;74.81;100830.09;7422653;19;20043;-68
2023/12/01 06:21:09;;;;;;;35.25;20.60;;;;;;;-1.55;74.25;100831.78;7396621;19;20029;-69
2023/12/01 06:23:38;;;;;;;36.55;20.90;;;;;;;-1.89;75.07;100835.13;7400076;19;20024;-68
2023/12/01 06:26:06;;;;;;;34.75;20.45;;;;;;;-1.95;75.63;100835.22;7400629;19;20026;-68
2023/12/01 06:28:33;;;;;;;34.78;20.98;;;;;;;-1.86;75.59;100834.22;7402496;19;20026;-69
2023/12/01 06:31:01;;;;;;;34.70;20.27;;;;;;;-1.68;74.93;100836.38;7396363;19;20040;-70
2023/12/01 06:33:29;;;;;;;35.15;21.42;;;;;;;-1.71;74.69;100839.06;7397357;19;20023;-70
2023/12/01 06:35:58;;;;;;;34.42;19.83;;;;;;;-1.59;74.19;100841.38;7396936;19;20385;-70
2023/12/01 06:38:26;;;;;;;33.55;20.55;;;;;;;-1.82;74.48;100844.47;7396409;19;20026;-68
2023/12/01 06:40:54;;;;;;;35.42;21.17;;;;;;;-1.66;74.50;100852.78;7393892;19;20022;-68
2023/12/01 06:43:22;;;;;;;37.25;21.20;;;;;;;-1.70;74.45;100850.31;7397379;19;20082;-68
2023/12/01 06:45:50;;;;;;;34.90;19.92;;;;;;;-1.81;74.73;100863.50;7395828;19;20019;-68
2023/12/01 06:48:18;;;;;;;35.00;20.67;;;;;;;-1.87;74.84;100867.09;7395845;19;20027;-69
2023/12/01 06:50:47;;;;;;;33.15;19.70;;;;;;;-2.10;75.64;100870.16;7394088;19;20015;-67
2023/12/01 06:53:15;;;;;;;33.38;20.30;;;;;;;-1.88;75.32;100878.34;7396270;19;20022;-67
2023/12/01 06:55:43;;;;;;;33.80;19.55;;;;;;;-1.97;75.01;100881.97;7394276;19;20018;-68
2023/12/01 06:58:11;;;;;;;36.28;21.02;;;;;;;-2.29;76.38;100890.41;7396394;19;20028;-68
2023/12/01 07:00:39;;;;;;;35.70;21.52;;;;;;;-2.12;75.61;100882.28;7394501;19;20051;-67
2023/12/01 07:03:08;;;;;;;35.00;20.52;;;;;;;-2.16;76.05;100885.81;7394404;19;20372;-67
2023/12/01 07:05:39;;;;;;;36.22;21.38;;;;;;;-2.25;76.18;100886.88;7394461;19;20053;-67
2023/12/01 07:08:11;;;;;;;39.03;21.70;;;;;;;-2.15;75.49;100890.13;7392962;19;20494;-67
2023/12/01 07:10:41;;;;;;;37.28;21.33;;;;;;;-2.10;75.49;100885.72;7394989;19;20447;-67
2023/12/01 07:13:09;;;;;;;35.25;20.83;;;;;;;-2.21;75.61;100898.88;7396347;19;20026;-67
2023/12/01 07:15:37;;;;;;;36.25;20.38;;;;;;;-2.18;75.91;100900.53;7396353;19;20014;-68
2023/12/01 07:18:06;;;;;;;34.75;20.55;;;;;;;-1.96;75.45;100912.22;7395214;19;20502;-67
2023/12/01 07:20:34;;;;;;;39.28;22.58;;;;;;;-1.89;74.90;100902.59;7392598;19;20046;-67
2023/12/01 07:23:02;;;;;;;40.67;22.33;;;;;;;-1.70;74.98;100905.66;7394986;19;20015;-67
2023/12/01 07:25:34;;;;;;;36.88;21.15;;;;;;;-1.55;75.00;100900.16;7394508;19;20014;-67
2023/12/01 07:28:04;;;;;;;36.03;20.40;;;;;;;-1.25;74.09;100906.41;7394302;19;20019;-67
2023/12/01 07:30:32;;;;;;;40.78;21.58;;;;;;;-0.92;73.93;100911.69;7388030;19;20425;-67
2023/12/01 07:33:02;;;;;;;38.40;23.10;;;;;;;-0.76;73.14;100918.25;7392949;19;20036;-67
2023/12/01 07:35:30;;;;;;;37.95;22.02;;;;;;;-0.92;72.42;100924.69;7393238;19;20011;-67
2023/12/01 07:37:57;;;;;;;40.20;23.58;;;;;;;-1.25;73.94;100934.13;7393155;19;20064;-67
2023/12/01 07:40:27;;;;;;;40.42;24.42;;;;;;;-1.35;74.10;100930.88;7393362;19;20479;-67
2023/12/01 07:42:56;;;;;;;39.88;23.95;;;;;;;-1.24;74.76;100946.22;7394908;19;20015;-67
2023/12/01 07:45:25;;;;;;;40.95;22.52;;;;;;;-1.42;75.67;100952.66;7394779;19;20369;-66
2023/12/01 07:47:57;;;;;;;41.75;24.55;;;;;;;-1.15;75.48;100945.16;7394073;19;20019;-66
2023/12/01 07:50:25;;;;;;;43.22;24.55;;;;;;;-1.19;75.03;100944.38;7392272;19;20378;-67
2023/12/01 07:52:55;;;;;;;44.10;24.77;;;;;;;-1.19;75.44;100938.31;7394170;19;20491;-68
2023/12/01 07:55:24;;;;;;;41.03;24.13;;;;;;;-0.98;75.29;100953.44;7392478;19;20085;-68
2023/12/01 07:57:52;;;;;;;41.92;23.55;;;;;;;-0.66;74.75;100951.81;7394136;19;20018;-66
2023/12/01 08:00:19;;;;;;;42.40;24.17;;;;;;;-0.42;73.86;100956.44;7393588;19;20023;-65
2023/12/01 08:02:51;;;;;;;42.55;24.50;;;;;;;-0.09;72.52;100948.63;7394408;19;20372;-67
2023/12/01 08:05:23;;;;;;;41.00;24.30;;;;;;;0.03;71.93;100953.50;7394226;19;20007;-66
2023/12/01 08:07:53;;;;;;;39.25;23.05;;;;;;;0.11;71.45;100955.91;7393836;19;20014;-66
2023/12/01 08:10:27;;;;;;;36.72;21.98;;;;;;;0.12;70.87;100952.41;7391838;19;20017;-66
2023/12/01 08:12:58;;;;;;;36.63;22.17;;;;;;;-0.16;72.20;100965.28;7391825;19;20011;-66
2023/12/01 08:15:28;;;;;;;37.72;22.77;;;;;;;0.00;72.00;100958.81;7393441;19;20089;-66
2023/12/01 08:17:58;;;;;;;41.10;22.15;;;;;;;0.24;71.05;100965.94;7392765;19;20112;-66
2023/12/01 08:20:30;;;;;;;39.28;22.55;;;;;;;-0.06;72.03;100965.03;7391171;19;20043;-66
2023/12/01 08:22:59;;;;;;;38.33;22.80;;;;;;;0.17;71.79;100971.38;7393335;19;20078;-65
2023/12/01 08:25:29;;;;;;;36.97;21.50;;;;;;;0.32;71.29;100973.53;7391420;19;20014;-65
2023/12/01 08:27:56;;;;;;;33.75;21.02;;;;;;;0.53;70.58;100979.88;7392154;19;20093;-65
2023/12/01 08:30:25;;;;;;;36.00;21.33;;;;;;;0.52;70.41;100975.56;7390592;19;20039;-64
2023/12/01 08:32:55;;;;;;;35.45;19.55;;;;;;;0.53;70.13;100974.66;7392518;19;20032;-64
2023/12/01 08:35:24;;;;;;;32.70;19.92;;;;;;;0.29;70.59;100975.38;7392517;19;20071;-65
2023/12/01 08:37:53;;;;;;;31.20;18.75;;;;;;;0.05;71.99;100975.16;7392503;19;20137;-65
2023/12/01 08:40:22;;;;;;;32.13;19.80;;;;;;;0.06;71.80;100982.06;7391300;19;20014;-65
2023/12/01 08:42:52;;;;;;;35.90;20.85;;;;;;;-0.13;72.27;100979.09;7392193;19;20483;-65
2023/12/01 08:45:21;;;;;;;36.30;21.35;;;;;;;0.17;72.15;100980.03;7392156;19;20098;-65
2023/12/01 08:47:51;;;;;;;35.80;20.10;;;;;;;0.39;71.43;100979.44;7388939;19;20022;-65
2023/12/01 08:50:20;;;;;;;37.88;21.98;;;;;;;0.17;71.51;100981.78;7388050;19;20018;-65
2023/12/01 08:52:48;;;;;;;35.00;21.20;;;;;;;0.37;72.19;100981.22;7390215;19;20015;-65
2023/12/01 08:55:16;;;;;;;35.05;21.10;;;;;;;0.48;71.39;100985.22;7391915;19;20039;-65
2023/12/01 08:57:44;;;;;;;36.47;21.55;;;;;;;0.70;70.44;100992.44;7391551;19;20015;-65
2023/12/01 09:00:18;;;;;;;35.78;20.63;;;;;;;0.75;70.20;100985.34;7389188;19;20022;-65
2023/12/01 09:02:48;;;;;;;36.67;21.70;;;;;;;0.58;70.65;100985.00;7391726;19;20015;-65
2023/12/01 09:05:17;;;;;;;40.70;22.80;;;;;;;0.61;70.82;100977.06;7392143;19;20046;-65
2023/12/01 09:07:48;;;;;;;40.58;22.83;;;;;;;0.66;70.60;100989.06;7392154;19;20086;-65
2023/12/01 09:10:19;;;;;;;38.05;22.40;;;;;;;0.73;70.55;100987.16;7389599;19;20018;-65
2023/12/01 09:12:51;;;;;;;38.90;22.95;;;;;;;0.89;70.22;100985.78;7391519;19;20089;-65
2023/12/01 09:15:19;;;;;;;39.55;22.52;;;;;;;0.88;69.57;100994.50;7391484;19;20018;-65
2023/12/01 09:17:47;;;;;;;41.08;22.95;;;;;;;0.78;69.89;100993.06;7391133;19;20511;-65
2023/12/01 09:20:15;;;;;;;39.40;23.38;;;;;;;0.80;69.95;100990.41;7390440;19;20014;-65
2023/12/01 09:22:43;;;;;;;38.83;23.15;;;;;;;0.92;69.62;100990.91;7391826;19;20491;-65
2023/12/01 09:25:11;;;;;;;39.58;22.60;;;;;;;0.89;69.65;100987.53;7391853;19;20018;-65
2023/12/01 09:27:42;;;;;;;38.78;22.42;;;;;;;0.80;70.18;100990.41;7391637;19;20367;-65
2023/12/01 09:30:13;;;;;;;39.53;22.98;;;;;;;0.88;70.10;100989.31;7389427;19;20018;-65
2023/12/01 09:32:45;;;;;;;35.53;21.45;;;;;;;0.71;70.33;100991.53;7391289;19;20007;-65
2023/12/01 09:35:15;;;;;;;35.92;19.90;;;;;;;0.68;70.74;100984.66;7390845;19;20014;-65
2023/12/01 09:38:03;;;;;;;34.88;20.05;;;;;;;0.74;70.96;100981.03;7390923;19;20028;-65
2023/12/01 09:40:37;;;;;;;35.80;20.33;;;;;;;0.80;70.53;100977.38;7387960;19;20050;-65
2023/12/01 09:43:07;;;;;;;;;;;;;;;0.66;70.59;100985.63;7392034;19;20364;-66
2023/12/01 09:45:34;;;;;;;33.28;19.50;;;;;;;0.75;70.94;100980.13;7390603;19;19927;-66
2023/12/01 09:48:04;;;;;;;35.30;19.95;;;;;;;0.86;70.26;100979.81;7390745;19;20090;-66
2023/12/01 09:50:32;;;;;;;34.75;19.48;;;;;;;1.04;69.99;100981.03;7387998;19;20376;-66
2023/12/01 09:53:01;;;;;;;35.00;19.30;;;;;;;0.92;69.69;100982.25;7390147;19;20021;-65
2023/12/01 09:55:29;;;;;;;34.63;20.55;;;;;;;0.87;70.54;100976.28;7396303;19;20022;-65
2023/12/01 09:57:57;;;;;;;745.28;78.88;;;;;;;0.96;70.54;100976.88;7398627;19;20031;-66
2023/12/01 10:00:25;;;;;;;42.17;19.92;;;;;;;1.00;69.60;100968.97;7393102;19;20455;-66
2023/12/01 10:02:54;;;;;;;32.88;18.50;;;;;;;0.80;70.17;100973.03;7395294;19;20367;-65
2023/12/01 10:05:22;;;;;;;30.48;17.30;;;;;;;0.81;70.36;100977.34;7398058;19;20040;-65
2023/12/01 10:07:50;;;;;;;33.35;19.77;;;;;;;0.89;70.17;100977.97;7396232;19;20090;-65
2023/12/01 10:10:26;;;;;;;30.58;17.65;;;;;;;0.62;70.80;100984.84;7394977;19;20039;-66
2023/12/01 10:12:55;;;;;;;31.45;18.30;;;;;;;0.75;71.17;100989.69;7397375;19;20019;-65
2023/12/01 10:15:24;;;;;;;30.60;18.10;;;;;;;1.01;69.95;100992.38;7397412;19;20031;-65
2023/12/01 10:18:06;;;;;;;29.75;17.38;;;;;;;1.03;69.54;100990.59;7395444;19;20035;-65
2023/12/01 10:20:35;;;;;;;31.63;17.35;;;;;;;0.90;69.97;100994.47;7394609;19;20023;-65
2023/12/01 10:23:16;;;;;;;28.50;16.77;;;;;;;1.05;69.92;100991.38;7396467;19;20022;-65
2023/12/01 10:25:49;;;;;;;28.05;16.35;;;;;;;1.16;69.97;100994.53;7396590;19;20027;-65
2023/12/01 10:28:22;;;;;;;30.52;17.88;;;;;;;1.05;69.92;100999.22;7397164;19;20014;-65
2023/12/01 10:30:59;;;;;;;28.08;15.85;;;;;;;1.10;70.12;100999.06;7391576;19;20014;-65
2023/12/01 10:33:30;;;;;;;29.25;15.75;;;;;;;1.30;69.73;100986.28;7396395;19;20019;-65
2023/12/01 10:36:01;;;;;;;29.25;17.17;;;;;;;1.43;69.33;100997.16;7395076;19;20014;-65
2023/12/01 10:38:30;;;;;;;32.20;17.92;;;;;;;1.44;69.58;100996.25;7395190;19;20018;-65
2023/12/01 10:40:59;;;;;;;32.13;18.50;;;;;;;1.44;69.73;100998.84;7393837;19;20010;-65
2023/12/01 10:43:28;;;;;;;35.90;20.05;;;;;;;1.32;70.13;100989.66;7396425;19;20027;-65
2023/12/01 10:46:03;;;;;;;37.13;20.55;;;;;;;1.41;70.25;100993.72;7396510;19;20033;-65
2023/12/01 10:48:33;;;;;;;37.40;20.83;;;;;;;1.29;70.93;100994.97;7396284;19;20018;-65
2023/12/01 10:51:03;;;;;;;42.78;21.55;;;;;;;1.16;71.30;101004.09;7392685;19;20026;-65
2023/12/01 10:53:32;;;;;;;35.22;18.80;;;;;;;1.11;71.67;100996.44;7396353;19;20439;-65
2023/12/01 10:56:03;;;;;;;34.35;17.80;;;;;;;1.03;71.96;100995.81;7396561;19;20014;-65
2023/12/01 10:58:34;;;;;;;34.00;17.88;;;;;;;1.10;72.08;100988.63;7395954;19;20014;-65
2023/12/01 11:01:03;;;;;;;32.22;16.50;;;;;;;1.18;71.93;100994.47;7393396;19;20014;-65
2023/12/01 11:03:32;;;;;;;31.05;15.80;;;;;;;1.19;72.19;100989.22;7395676;19;20018;-65
2023/12/01 11:06:34;;;;;;;32.42;17.08;;;;;;;1.16;71.68;100991.91;7394018;19;20042;-65
2023/12/01 11:09:12;;;;;;;32.63;16.85;;;;;;;0.89;73.16;100995.38;7393004;19;20014;-65
2023/12/01 11:12:04;;;;;;;39.50;21.27;;;;;;;1.05;72.94;100995.75;7390873;19;20026;-65
2023/12/01 11:14:37;;;;;;;37.63;19.58;;;;;;;1.20;72.27;100990.91;7394557;19;20014;-66
2023/12/01 11:17:06;;;;;;;31.60;17.85;;;;;;;1.36;71.66;100991.28;7392666;19;20047;-66
2023/12/01 11:19:38;;;;;;;37.65;19.10;;;;;;;1.38;71.34;100989.50;7393877;19;20590;-66
2023/12/01 11:22:27;;;;;;;34.50;18.63;;;;;;;1.40;71.20;100984.22;7394501;19;20023;-67
2023/12/01 11:24:57;;;;;;;33.08;18.15;;;;;;;1.06;71.88;100992.22;7393050;19;20010;-66
2023/12/01 11:27:25;;;;;;;40.60;20.75;;;;;;;1.10;72.36;100993.84;7394525;19;20023;-66